Time;durP1;ratioP1;P1;durP2;ratioP2;P2;SDS_P1;SDS_P2;PMS_P1;PMS_P2;Temp;Humidity;BMP_temperature;BMP_pressure;BME280_temperature;BME280_humidity;BME280_pressure;Samples;Min_cycle;Max_cycle;Signal;HPM_P1;HPM_P2
2024/03/30 00:01:55;;;;;;;1.20;1.10;;;18.00;61.60;;;;;;5074748;28;20162;-82
2024/03/30 00:04:21;;;;;;;1.40;1.30;;;18.00;61.50;;;;;;5057268;28;20531;-82
2024/03/30 00:06:47;;;;;;;1.20;1.10;;;18.00;61.70;;;;;;5073437;28;20170;-82
2024/03/30 00:09:15;;;;;;;1.40;1.30;;;18.00;61.50;;;;;;5040060;28;20644;-82
2024/03/30 00:11:41;;;;;;;1.23;1.05;;;18.00;61.60;;;;;;5055942;28;20664;-82
2024/03/30 00:14:08;;;;;;;1.30;1.20;;;18.00;61.80;;;;;;5039827;28;20176;-82
2024/03/30 00:16:33;;;;;;;1.35;1.25;;;18.00;61.90;;;;;;5057086;28;20184;-82
2024/03/30 00:19:01;;;;;;;1.42;1.33;;;18.00;61.80;;;;;;5056489;28;20624;-82
2024/03/30 00:21:29;;;;;;;1.40;1.30;;;18.00;61.60;;;;;;5040249;28;20173;-82
2024/03/30 00:23:55;;;;;;;1.17;1.08;;;18.00;61.60;;;;;;5055539;28;20185;-82
2024/03/30 00:26:20;;;;;;;1.20;1.10;;;18.00;61.80;;;;;;5073079;28;20222;-82
2024/03/30 00:28:46;;;;;;;1.20;1.10;;;18.00;61.80;;;;;;5056121;28;20734;-82
2024/03/30 00:31:13;;;;;;;1.30;1.20;;;18.00;61.90;;;;;;5039876;28;21038;-82
2024/03/30 00:33:39;;;;;;;1.55;1.45;;;18.00;61.80;;;;;;5074154;28;20236;-82
2024/03/30 00:36:04;;;;;;;1.30;1.20;;;18.00;61.80;;;;;;5039874;28;20181;-82
2024/03/30 00:38:33;;;;;;;1.15;1.05;;;18.00;61.60;;;;;;5056171;28;20172;-82
2024/03/30 00:40:59;;;;;;;1.20;1.10;;;18.00;61.80;;;;;;5056539;28;20161;-82
2024/03/30 00:43:29;;;;;;;1.10;1.00;;;18.00;61.80;;;;;;5056245;28;20218;-82
2024/03/30 00:45:57;;;;;;;1.67;1.30;;;18.00;61.70;;;;;;5055306;28;20189;-82
2024/03/30 00:48:23;;;;;;;1.50;1.40;;;18.00;61.90;;;;;;5039412;28;20188;-82
2024/03/30 00:50:54;;;;;;;1.50;1.30;;;18.00;61.60;;;;;;5055921;28;20928;-82
2024/03/30 00:53:21;;;;;;;1.25;1.15;;;17.90;61.70;;;;;;5038465;28;20548;-82
2024/03/30 00:55:57;;;;;;;1.13;1.02;;;18.00;61.80;;;;;;5054371;28;20655;-82
2024/03/30 00:58:22;;;;;;;1.70;1.30;;;18.00;61.50;;;;;;5055012;28;20185;-82
2024/03/30 01:00:49;;;;;;;1.52;1.42;;;18.00;61.60;;;;;;5073583;28;20165;-82
2024/03/30 01:03:15;;;;;;;1.30;1.20;;;18.00;61.60;;;;;;5056145;28;20166;-82
2024/03/30 01:05:42;;;;;;;1.55;1.27;;;18.00;61.70;;;;;;5073732;28;20174;-82
2024/03/30 01:08:07;;;;;;;1.20;1.10;;;18.00;61.60;;;;;;5056000;28;20176;-82
2024/03/30 01:10:35;;;;;;;1.30;1.20;;;18.00;61.80;;;;;;5072197;28;20181;-82
2024/03/30 01:13:01;;;;;;;1.30;1.20;;;18.00;61.70;;;;;;5072198;28;20892;-82
2024/03/30 01:15:27;;;;;;;1.40;1.30;;;18.00;61.80;;;;;;5055641;28;20160;-82
2024/03/30 01:17:53;;;;;;;1.20;1.10;;;18.00;61.80;;;;;;5055658;28;20529;-82
2024/03/30 01:20:20;;;;;;;1.48;1.10;;;18.00;61.90;;;;;;5055341;28;20172;-82
2024/03/30 01:22:46;;;;;;;3.08;1.40;;;18.00;61.70;;;;;;5055548;28;20308;-81
2024/03/30 01:25:13;;;;;;;1.67;1.33;;;18.00;61.60;;;;;;5055425;28;20603;-82
2024/03/30 01:27:40;;;;;;;1.92;1.40;;;18.00;61.80;;;;;;5038556;28;20184;-82
2024/03/30 01:30:09;;;;;;;2.25;1.15;;;18.00;61.90;;;;;;5055214;28;20273;-82
2024/03/30 01:32:36;;;;;;;1.40;1.30;;;17.90;61.80;;;;;;5038618;28;20230;-82
2024/03/30 01:35:07;;;;;;;1.27;1.17;;;18.00;62.00;;;;;;5055453;28;20160;-82
2024/03/30 01:37:33;;;;;;;1.40;1.30;;;17.90;62.00;;;;;;5054880;28;20177;-83
2024/03/30 01:39:59;;;;;;;1.50;1.40;;;18.00;61.90;;;;;;5055226;28;20628;-82
2024/03/30 01:42:28;;;;;;;1.17;1.08;;;17.90;61.80;;;;;;5071995;28;20236;-82
2024/03/30 01:44:54;;;;;;;1.42;1.20;;;18.00;61.90;;;;;;5055265;28;20259;-82
2024/03/30 01:47:20;;;;;;;1.00;1.00;;;18.00;61.90;;;;;;5071793;28;20291;-82
2024/03/30 01:49:46;;;;;;;1.20;1.10;;;18.00;61.70;;;;;;5051275;28;20182;-82
2024/03/30 01:52:13;;;;;;;1.58;1.30;;;17.90;61.80;;;;;;5051995;28;20170;-82
2024/03/30 01:54:39;;;;;;;1.40;1.30;;;18.00;61.90;;;;;;5034694;28;20169;-82
2024/03/30 01:57:05;;;;;;;1.65;1.38;;;18.00;61.80;;;;;;5051742;28;20163;-82
2024/03/30 01:59:31;;;;;;;1.60;1.17;;;18.00;61.80;;;;;;5035050;28;20155;-82
2024/03/30 02:01:56;;;;;;;1.50;1.40;;;18.00;61.90;;;;;;5034953;28;20158;-83
2024/03/30 02:04:23;;;;;;;1.20;1.10;;;17.90;62.00;;;;;;5035025;28;20682;-82
2024/03/30 02:06:50;;;;;;;1.20;1.10;;;17.90;62.00;;;;;;5018472;28;20177;-82
2024/03/30 02:09:16;;;;;;;1.20;1.10;;;17.90;61.70;;;;;;5035404;28;20159;-82
2024/03/30 02:11:44;;;;;;;1.25;1.15;;;17.90;61.80;;;;;;5037073;28;20629;-82
2024/03/30 02:14:10;;;;;;;1.90;1.58;;;17.90;62.10;;;;;;5055194;28;20154;-82
2024/03/30 02:16:37;;;;;;;1.27;1.17;;;17.90;62.00;;;;;;5055153;28;20561;-81
2024/03/30 02:19:03;;;;;;;1.40;1.30;;;17.90;61.90;;;;;;5055073;28;20244;-82
2024/03/30 02:21:31;;;;;;;1.35;1.17;;;17.90;61.90;;;;;;5054698;28;20157;-82
2024/03/30 02:23:56;;;;;;;1.83;1.30;;;17.90;62.10;;;;;;5053894;28;20177;-82
2024/03/30 02:26:23;;;;;;;1.58;1.25;;;17.90;62.10;;;;;;5071738;28;20156;-82
2024/03/30 02:28:50;;;;;;;1.55;1.45;;;17.90;62.10;;;;;;5071244;28;20213;-82
2024/03/30 02:31:16;;;;;;;1.42;1.15;;;17.90;62.10;;;;;;5054827;28;20194;-82
2024/03/30 02:33:42;;;;;;;1.38;1.27;;;17.90;62.10;;;;;;5071387;28;20215;-82
2024/03/30 02:36:09;;;;;;;1.60;1.50;;;17.90;62.10;;;;;;5054904;28;20164;-82
2024/03/30 02:38:35;;;;;;;1.40;1.30;;;17.90;61.90;;;;;;5054572;28;20166;-82
2024/03/30 02:41:01;;;;;;;1.83;1.35;;;17.90;62.00;;;;;;5071465;28;20162;-82
2024/03/30 02:43:30;;;;;;;1.55;1.30;;;17.90;62.00;;;;;;5054511;28;20168;-82
2024/03/30 02:45:57;;;;;;;1.38;1.25;;;17.90;61.80;;;;;;5074066;28;20181;-82
2024/03/30 02:48:23;;;;;;;1.30;1.20;;;17.90;62.00;;;;;;5040598;28;20723;-82
2024/03/30 02:50:49;;;;;;;1.50;1.30;;;17.90;62.10;;;;;;5074891;28;20268;-82
2024/03/30 02:53:17;;;;;;;1.42;1.15;;;17.90;62.20;;;;;;5058227;28;20181;-82
2024/03/30 02:55:43;;;;;;;1.85;1.30;;;17.90;62.00;;;;;;5056692;28;20235;-81
2024/03/30 02:58:11;;;;;;;1.20;1.10;;;17.90;62.00;;;;;;5058577;28;20157;-82
2024/03/30 03:00:36;;;;;;;1.17;1.10;;;17.90;62.10;;;;;;5074640;28;20185;-81
2024/03/30 03:03:03;;;;;;;1.38;1.08;;;17.80;62.00;;;;;;5074711;28;20659;-82
2024/03/30 03:05:28;;;;;;;1.77;1.38;;;17.90;62.10;;;;;;5058356;28;20207;-82
2024/03/30 03:07:54;;;;;;;1.50;1.40;;;17.90;62.20;;;;;;5074784;28;20526;-82
2024/03/30 03:10:20;;;;;;;1.35;1.25;;;17.90;62.30;;;;;;5074552;28;20593;-82
2024/03/30 03:12:46;;;;;;;1.30;1.20;;;17.90;63.00;;;;;;5041135;28;20680;-82
2024/03/30 03:15:11;;;;;;;1.45;1.30;;;17.90;62.10;;;;;;5041187;28;20642;-82
2024/03/30 03:17:38;;;;;;;1.60;1.50;;;17.80;62.20;;;;;;5041163;28;20154;-82
2024/03/30 03:20:08;;;;;;;1.20;1.10;;;17.80;62.30;;;;;;5074750;28;20162;-82
2024/03/30 03:22:39;;;;;;;1.60;1.50;;;17.80;62.30;;;;;;5057041;28;20651;-82
2024/03/30 03:25:07;;;;;;;1.50;1.40;;;17.80;62.30;;;;;;5056848;28;20213;-82
2024/03/30 03:27:33;;;;;;;1.23;1.13;;;17.80;62.20;;;;;;5056693;28;20690;-82
2024/03/30 03:30:00;;;;;;;1.90;1.33;;;17.80;62.20;;;;;;5057421;28;20307;-82
2024/03/30 03:32:27;;;;;;;1.23;1.13;;;17.80;62.10;;;;;;5056526;28;20208;-81
2024/03/30 03:34:57;;;;;;;1.40;1.27;;;17.90;62.10;;;;;;5056635;28;20182;-82
2024/03/30 03:37:23;;;;;;;1.40;1.30;;;17.90;62.10;;;;;;5056553;28;20774;-81
2024/03/30 03:39:49;;;;;;;1.45;1.10;;;17.90;62.00;;;;;;5057566;28;20204;-82
2024/03/30 03:42:15;;;;;;;1.48;1.38;;;17.90;62.10;;;;;;5057641;28;20227;-82
2024/03/30 03:44:49;;;;;;;1.50;1.40;;;17.80;62.20;;;;;;5074007;28;20503;-82
2024/03/30 03:47:15;;;;;;;1.45;1.35;;;17.80;62.30;;;;;;5056828;28;20648;-82
2024/03/30 03:49:42;;;;;;;1.50;1.40;;;17.80;62.30;;;;;;5057177;28;20161;-82
2024/03/30 03:52:08;;;;;;;1.30;1.20;;;17.80;62.10;;;;;;5057204;28;20612;-82
2024/03/30 03:54:33;;;;;;;1.60;1.27;;;17.90;62.20;;;;;;5039874;28;20169;-82
2024/03/30 03:56:59;;;;;;;1.40;1.30;;;17.80;62.00;;;;;;5056466;28;20624;-82
2024/03/30 03:59:25;;;;;;;1.20;1.10;;;17.80;62.10;;;;;;5075103;28;20157;-82
2024/03/30 04:01:52;;;;;;;1.40;1.30;;;17.80;62.20;;;;;;5057144;28;20156;-82
2024/03/30 04:04:19;;;;;;;1.20;1.10;;;17.80;62.30;;;;;;5073578;28;20612;-82
2024/03/30 04:06:45;;;;;;;1.75;1.38;;;17.80;62.20;;;;;;5040313;28;20188;-82
2024/03/30 04:09:10;;;;;;;1.63;1.40;;;17.80;62.10;;;;;;5056971;28;20616;-82
2024/03/30 04:11:36;;;;;;;1.10;1.10;;;17.80;62.30;;;;;;5045545;28;20603;-82
2024/03/30 04:14:03;;;;;;;1.30;1.20;;;17.80;62.20;;;;;;5020236;28;20177;-82
2024/03/30 04:16:29;;;;;;;1.50;1.40;;;17.80;62.30;;;;;;5020272;28;20617;-82
2024/03/30 04:18:54;;;;;;;1.70;1.40;;;17.80;62.40;;;;;;5053190;28;20552;-82
2024/03/30 04:21:21;;;;;;;1.30;1.20;;;17.80;62.50;;;;;;5054456;28;20150;-82
2024/03/30 04:23:52;;;;;;;1.50;1.40;;;17.80;62.30;;;;;;5053199;28;20158;-82
2024/03/30 04:26:18;;;;;;;1.08;0.98;;;17.80;62.20;;;;;;5035807;28;20637;-82
2024/03/30 04:28:44;;;;;;;1.23;1.13;;;17.80;62.30;;;;;;5036774;28;20213;-82
2024/03/30 04:31:10;;;;;;;1.30;1.20;;;17.80;62.60;;;;;;5019910;28;20201;-82
2024/03/30 04:33:36;;;;;;;1.20;1.10;;;17.80;62.10;;;;;;5036431;28;20159;-82
2024/03/30 04:36:06;;;;;;;1.67;1.30;;;17.80;62.40;;;;;;5036577;28;20142;-82
2024/03/30 04:38:34;;;;;;;1.42;1.33;;;17.70;62.50;;;;;;5035654;28;20204;-82
2024/03/30 04:41:03;;;;;;;1.70;1.17;;;17.70;62.50;;;;;;5035619;28;20598;-82
2024/03/30 04:43:29;;;;;;;1.65;1.23;;;17.80;62.40;;;;;;5052937;28;20244;-82
2024/03/30 04:45:55;;;;;;;1.48;1.10;;;17.80;62.50;;;;;;5036071;28;20257;-82
2024/03/30 04:48:23;;;;;;;1.50;1.40;;;17.70;62.30;;;;;;5036350;28;20254;-82
2024/03/30 04:50:49;;;;;;;1.80;1.70;;;17.80;62.30;;;;;;5019783;28;20625;-82
2024/03/30 04:53:18;;;;;;;1.17;1.10;;;17.70;62.30;;;;;;5052603;28;20154;-82
2024/03/30 04:55:51;;;;;;;1.40;1.30;;;17.70;62.40;;;;;;5051964;28;20169;-82
2024/03/30 04:58:19;;;;;;;1.67;1.20;;;17.80;62.30;;;;;;5053772;28;20242;-82
2024/03/30 05:00:45;;;;;;;1.27;1.17;;;17.80;62.20;;;;;;5052653;28;20157;-82
2024/03/30 05:03:11;;;;;;;1.23;1.13;;;17.70;62.30;;;;;;5052336;28;20177;-82
2024/03/30 05:05:38;;;;;;;1.38;1.17;;;17.70;62.30;;;;;;5019328;28;20252;-82
2024/03/30 05:08:04;;;;;;;1.45;1.30;;;17.70;62.50;;;;;;5035168;28;20166;-82
2024/03/30 05:10:30;;;;;;;1.33;1.23;;;17.80;62.40;;;;;;5035715;28;20248;-82
2024/03/30 05:12:56;;;;;;;1.35;1.17;;;17.80;62.30;;;;;;5019157;28;20162;-82
2024/03/30 05:15:22;;;;;;;1.38;1.27;;;17.80;62.20;;;;;;5035758;28;20571;-83
2024/03/30 05:17:48;;;;;;;1.45;1.20;;;17.80;62.10;;;;;;5035593;28;20185;-82
2024/03/30 05:22:52;;;;;;;1.40;1.13;;;17.80;62.20;;;;;;5052167;28;20165;-82
2024/03/30 05:25:20;;;;;;;1.40;1.30;;;17.80;62.20;;;;;;5035212;28;20609;-82
2024/03/30 05:27:46;;;;;;;1.40;1.30;;;17.80;62.30;;;;;;5034361;28;20247;-82
2024/03/30 05:30:14;;;;;;;1.23;1.13;;;17.80;62.30;;;;;;5051688;28;20234;-82
2024/03/30 05:32:41;;;;;;;1.95;1.40;;;17.80;62.20;;;;;;5050972;28;20533;-82
2024/03/30 05:35:06;;;;;;;1.40;1.00;;;17.90;62.20;;;;;;5051860;28;20176;-82
2024/03/30 05:37:32;;;;;;;1.30;1.20;;;17.80;61.90;;;;;;5035297;28;20621;-82
2024/03/30 05:39:58;;;;;;;1.20;1.10;;;17.90;62.10;;;;;;5018657;28;20241;-82
2024/03/30 05:42:24;;;;;;;1.73;1.40;;;17.90;62.10;;;;;;5018703;28;20658;-82
2024/03/30 05:44:50;;;;;;;0.90;0.90;;;17.80;62.10;;;;;;5051720;28;20208;-82
2024/03/30 05:47:16;;;;;;;1.52;1.40;;;17.80;62.10;;;;;;5051948;28;20186;-82
2024/03/30 05:49:43;;;;;;;1.33;1.23;;;17.80;62.00;;;;;;5035197;28;20177;-82
2024/03/30 05:52:08;;;;;;;1.27;1.17;;;17.80;62.00;;;;;;5051704;28;20209;-82
2024/03/30 05:54:34;;;;;;;1.27;1.15;;;17.80;61.90;;;;;;5051180;28;20667;-82
2024/03/30 05:57:00;;;;;;;1.35;1.25;;;17.90;62.00;;;;;;5034981;28;20157;-82
2024/03/30 05:59:27;;;;;;;1.50;1.40;;;17.90;62.10;;;;;;5051684;28;20234;-82
2024/03/30 06:01:52;;;;;;;1.75;1.40;;;17.80;62.20;;;;;;5051498;28;20228;-82
2024/03/30 06:04:19;;;;;;;3.08;1.30;;;17.90;62.10;;;;;;5018436;28;20193;-82
2024/03/30 06:06:45;;;;;;;1.58;1.45;;;17.80;62.20;;;;;;5051466;28;20165;-82
2024/03/30 06:09:12;;;;;;;1.50;1.40;;;17.80;62.20;;;;;;5034957;28;20554;-82
2024/03/30 06:11:37;;;;;;;1.40;1.15;;;17.80;62.10;;;;;;5035292;28;20269;-82
2024/03/30 06:14:03;;;;;;;1.42;1.25;;;17.80;62.20;;;;;;5034978;28;20182;-82
2024/03/30 06:16:30;;;;;;;1.85;1.20;;;17.80;62.10;;;;;;5034675;28;20151;-82
2024/03/30 06:18:56;;;;;;;1.33;1.20;;;17.80;62.10;;;;;;5034649;28;20166;-82
2024/03/30 06:21:22;;;;;;;2.28;1.45;;;17.80;62.00;;;;;;5021012;28;20232;-83
2024/03/30 06:23:48;;;;;;;1.42;1.33;;;17.80;62.10;;;;;;5052927;28;20162;-82
2024/03/30 06:26:14;;;;;;;1.40;1.30;;;17.80;63.00;;;;;;5021484;28;20655;-82
2024/03/30 06:28:40;;;;;;;1.27;1.17;;;17.80;62.00;;;;;;5021863;28;20228;-82
2024/03/30 06:31:08;;;;;;;1.52;1.42;;;17.90;62.00;;;;;;5038243;28;20202;-81
2024/03/30 06:33:34;;;;;;;1.17;1.00;;;17.90;61.80;;;;;;5022107;28;20167;-82
2024/03/30 06:36:00;;;;;;;1.30;1.20;;;17.90;62.00;;;;;;5021636;28;20165;-82
2024/03/30 06:38:26;;;;;;;2.92;1.35;;;17.90;61.80;;;;;;5034648;28;20159;-82
2024/03/30 06:46:12;;;;;;;1.30;1.20;;;18.00;61.60;;;;;;5049617;28;20648;-82
2024/03/30 06:48:38;;;;;;;1.48;1.35;;;18.00;61.60;;;;;;5034662;28;20167;-82
2024/03/30 06:51:04;;;;;;;2.05;1.55;;;17.90;61.60;;;;;;5034365;28;20201;-82
2024/03/30 06:53:31;;;;;;;1.30;1.20;;;18.00;61.60;;;;;;5033868;28;20170;-81
2024/03/30 06:55:57;;;;;;;1.33;1.23;;;18.00;61.50;;;;;;5034772;28;20186;-82
2024/03/30 06:58:26;;;;;;;2.00;1.40;;;18.00;61.50;;;;;;5034592;28;20193;-82
2024/03/30 07:00:52;;;;;;;1.50;1.33;;;18.00;61.50;;;;;;5066823;28;20174;-82
2024/03/30 07:03:17;;;;;;;1.40;1.30;;;18.00;61.50;;;;;;5034359;28;20216;-82
2024/03/30 07:05:44;;;;;;;1.50;1.40;;;18.00;61.40;;;;;;5034708;28;20170;-82
2024/03/30 07:08:13;;;;;;;1.38;1.20;;;18.00;61.40;;;;;;5050921;28;20193;-83
2024/03/30 07:10:39;;;;;;;1.77;1.30;;;18.00;61.40;;;;;;5049766;28;20222;-82
2024/03/30 07:13:05;;;;;;;2.17;1.48;;;18.00;61.60;;;;;;5034204;28;20178;-82
2024/03/30 07:15:32;;;;;;;1.27;1.17;;;18.00;61.40;;;;;;5050727;28;20151;-81
2024/03/30 07:17:58;;;;;;;1.90;1.58;;;18.10;61.30;;;;;;5050807;28;20201;-82
2024/03/30 07:20:24;;;;;;;1.40;1.30;;;18.10;61.50;;;;;;5034448;28;20170;-81
2024/03/30 07:22:49;;;;;;;1.50;1.30;;;18.00;61.40;;;;;;5034325;28;20167;-81
2024/03/30 07:25:15;;;;;;;1.50;1.40;;;18.10;61.20;;;;;;5050688;28;20545;-81
2024/03/30 07:27:41;;;;;;;1.40;1.30;;;18.10;61.20;;;;;;5050872;28;20521;-81
2024/03/30 07:30:08;;;;;;;1.83;1.20;;;18.10;61.30;;;;;;5033238;28;20234;-82
2024/03/30 07:32:39;;;;;;;1.50;1.35;;;18.10;61.20;;;;;;5034826;28;20157;-82
2024/03/30 07:35:08;;;;;;;1.70;1.60;;;18.20;60.90;;;;;;5032985;28;20717;-82
2024/03/30 07:37:34;;;;;;;1.48;1.38;;;18.20;60.80;;;;;;5066369;28;20189;-82
2024/03/30 07:39:59;;;;;;;1.67;1.40;;;18.10;60.90;;;;;;5050609;28;20159;-81
2024/03/30 07:42:25;;;;;;;1.60;1.20;;;18.20;60.80;;;;;;5033942;28;20172;-82
2024/03/30 07:44:51;;;;;;;1.40;1.30;;;18.20;60.80;;;;;;5050383;28;20159;-82
2024/03/30 07:47:18;;;;;;;1.67;1.30;;;18.20;61.00;;;;;;5034868;28;20170;-81
2024/03/30 07:49:44;;;;;;;2.13;1.50;;;18.20;60.90;;;;;;5033695;28;20182;-82
2024/03/30 07:52:11;;;;;;;1.48;1.35;;;18.20;60.70;;;;;;5049992;28;20544;-81
2024/03/30 07:54:36;;;;;;;1.50;1.40;;;18.20;60.80;;;;;;5049518;28;20155;-81
2024/03/30 07:57:02;;;;;;;1.33;1.23;;;18.20;61.00;;;;;;5050149;28;20162;-82
2024/03/30 07:59:28;;;;;;;1.38;1.27;;;18.30;62.10;;;;;;5050094;28;20680;-82
2024/03/30 08:01:54;;;;;;;1.58;1.42;;;18.20;61.60;;;;;;5033549;28;20177;-82
2024/03/30 08:04:20;;;;;;;1.40;1.30;;;18.20;62.00;;;;;;5034653;28;20237;-82
2024/03/30 08:06:48;;;;;;;1.42;1.33;;;18.20;62.00;;;;;;5049928;28;20163;-81
2024/03/30 08:09:15;;;;;;;1.42;1.33;;;18.20;62.00;;;;;;5033144;28;20175;-82
2024/03/30 08:11:41;;;;;;;1.80;1.30;;;18.20;62.00;;;;;;5050100;28;20706;-82
2024/03/30 08:14:08;;;;;;;1.92;1.50;;;18.20;61.90;;;;;;5049797;28;20625;-82
2024/03/30 08:16:34;;;;;;;1.65;1.27;;;18.20;61.80;;;;;;5049736;28;20618;-82
2024/03/30 08:19:02;;;;;;;1.38;1.20;;;18.20;61.80;;;;;;5049694;28;20228;-82
2024/03/30 08:21:28;;;;;;;1.48;1.38;;;18.30;61.40;;;;;;5049380;28;20158;-82
2024/03/30 08:23:53;;;;;;;1.50;1.40;;;18.30;61.00;;;;;;5049980;28;20159;-82
2024/03/30 08:26:19;;;;;;;2.08;1.58;;;18.30;60.90;;;;;;5033301;28;20171;-82
2024/03/30 08:28:46;;;;;;;1.30;1.20;;;18.40;60.70;;;;;;5033114;28;20214;-81
2024/03/30 08:31:13;;;;;;;1.42;1.33;;;18.30;60.80;;;;;;5051494;28;20193;-82
2024/03/30 08:33:38;;;;;;;1.45;1.30;;;18.40;60.70;;;;;;5035027;28;20167;-81
2024/03/30 08:36:05;;;;;;;2.42;1.30;;;18.30;60.60;;;;;;5034944;28;20250;-82
2024/03/30 08:38:31;;;;;;;1.20;1.10;;;18.40;60.30;;;;;;5034661;28;20182;-82
2024/03/30 08:40:57;;;;;;;1.45;1.25;;;18.40;60.20;;;;;;5035097;28;20182;-82
2024/03/30 08:43:25;;;;;;;2.05;1.60;;;18.40;60.40;;;;;;5033797;28;20182;-82
2024/03/30 08:45:52;;;;;;;1.17;1.08;;;18.40;60.00;;;;;;5050416;28;20228;-81
2024/03/30 08:48:19;;;;;;;1.60;1.50;;;18.40;60.10;;;;;;5050956;28;20159;-81
2024/03/30 08:50:46;;;;;;;1.58;1.20;;;18.40;59.90;;;;;;5050662;28;20190;-81
2024/03/30 08:53:12;;;;;;;1.40;1.30;;;18.40;60.00;;;;;;5051000;28;20601;-81
2024/03/30 08:55:38;;;;;;;1.42;1.23;;;18.40;59.90;;;;;;5050378;28;20208;-81
2024/03/30 08:58:04;;;;;;;1.40;1.30;;;18.40;59.90;;;;;;5050617;28;20584;-81
2024/03/30 09:00:30;;;;;;;1.50;1.40;;;18.50;59.60;;;;;;5051155;28;20158;-81
2024/03/30 09:02:56;;;;;;;1.58;1.30;;;18.50;59.60;;;;;;5050549;28;20530;-82
2024/03/30 09:05:22;;;;;;;1.55;1.20;;;18.50;59.30;;;;;;5034012;28;20193;-82
2024/03/30 09:07:48;;;;;;;1.30;1.20;;;18.60;59.20;;;;;;5050016;28;20546;-81
2024/03/30 09:10:14;;;;;;;1.25;1.13;;;18.60;59.20;;;;;;5034323;28;20191;-82
2024/03/30 09:12:41;;;;;;;1.50;1.30;;;18.60;59.20;;;;;;5051003;28;20640;-82
2024/03/30 09:15:09;;;;;;;1.92;1.45;;;18.60;59.10;;;;;;5051617;28;20202;-82
2024/03/30 09:17:34;;;;;;;1.45;1.30;;;18.60;59.10;;;;;;5051058;28;20629;-82
2024/03/30 09:20:01;;;;;;;1.27;1.17;;;18.60;59.20;;;;;;5033112;28;20162;-82
2024/03/30 09:22:27;;;;;;;1.40;1.30;;;18.60;58.70;;;;;;5050589;28;20155;-82
2024/03/30 09:24:54;;;;;;;1.30;1.20;;;18.60;59.50;;;;;;5050039;28;20147;-82
2024/03/30 09:27:22;;;;;;;1.35;1.10;;;18.50;59.90;;;;;;5050861;28;20301;-81
2024/03/30 09:29:50;;;;;;;1.40;1.30;;;18.50;59.60;;;;;;5033968;28;20219;-82
2024/03/30 09:32:16;;;;;;;1.55;1.30;;;18.50;59.60;;;;;;5066710;28;20285;-82
2024/03/30 09:34:42;;;;;;;1.30;1.20;;;18.50;59.40;;;;;;5034414;28;20174;-82
2024/03/30 09:37:08;;;;;;;1.27;1.17;;;18.50;59.60;;;;;;5052304;28;20159;-82
2024/03/30 09:39:39;;;;;;;1.30;1.20;;;18.50;59.60;;;;;;5035859;28;20166;-82
2024/03/30 09:42:07;;;;;;;1.60;1.23;;;18.50;60.00;;;;;;5050995;28;20182;-82
2024/03/30 09:44:34;;;;;;;1.35;1.20;;;18.40;59.90;;;;;;5050817;28;20151;-82
2024/03/30 09:47:00;;;;;;;1.27;1.10;;;18.40;59.70;;;;;;5049404;28;20161;-82
2024/03/30 09:49:26;;;;;;;1.42;1.08;;;18.40;59.60;;;;;;5049240;28;20167;-82
2024/03/30 09:51:52;;;;;;;1.13;1.02;;;18.40;59.60;;;;;;5033497;28;20549;-82
2024/03/30 09:54:19;;;;;;;1.33;1.23;;;18.50;59.80;;;;;;5049063;28;20157;-82
2024/03/30 09:56:45;;;;;;;1.52;1.40;;;18.50;59.70;;;;;;5033561;28;20166;-83
2024/03/30 09:59:11;;;;;;;1.25;1.15;;;18.40;59.30;;;;;;5034834;28;20193;-82
2024/03/30 10:01:37;;;;;;;1.70;1.17;;;18.50;59.40;;;;;;5050579;28;20163;-82
2024/03/30 10:04:03;;;;;;;1.10;1.00;;;18.50;59.30;;;;;;5051592;28;20212;-82
2024/03/30 10:06:29;;;;;;;1.42;1.23;;;18.50;59.40;;;;;;5033312;28;20188;-81
2024/03/30 10:08:58;;;;;;;1.02;1.00;;;18.50;60.10;;;;;;5032232;28;20249;-82
2024/03/30 10:11:23;;;;;;;1.20;1.10;;;18.40;60.40;;;;;;5048420;28;20207;-81
2024/03/30 10:14:07;;;;;;;1.55;1.45;;;18.40;59.80;;;;;;5048490;28;20201;-82
2024/03/30 10:16:32;;;;;;;1.40;1.30;;;18.50;59.40;;;;;;5033719;28;20564;-82
2024/03/30 10:18:58;;;;;;;1.38;1.27;;;18.50;59.20;;;;;;5050048;28;20226;-82
2024/03/30 10:21:24;;;;;;;1.52;1.10;;;18.60;59.20;;;;;;5050391;28;20637;-82
2024/03/30 10:23:51;;;;;;;1.13;1.00;;;18.60;59.20;;;;;;5050018;28;20651;-82
2024/03/30 10:26:18;;;;;;;1.17;1.10;;;18.50;59.70;;;;;;5035467;28;20236;-83
2024/03/30 10:28:44;;;;;;;0.98;0.95;;;18.60;59.10;;;;;;5018899;28;20260;-82
2024/03/30 10:31:11;;;;;;;0.73;0.73;;;18.50;59.70;;;;;;5018108;28;20279;-82
2024/03/30 10:33:37;;;;;;;1.10;1.00;;;18.50;59.40;;;;;;5035124;28;20257;-82
2024/03/30 10:36:03;;;;;;;1.20;1.10;;;18.60;59.00;;;;;;5019019;28;20202;-82
2024/03/30 10:38:29;;;;;;;1.00;1.00;;;18.60;58.90;;;;;;5034941;28;20182;-82
2024/03/30 10:40:56;;;;;;;1.92;1.02;;;18.60;58.90;;;;;;5017680;28;20190;-82
2024/03/30 10:43:23;;;;;;;1.30;1.20;;;18.60;59.30;;;;;;5018011;28;20166;-82
2024/03/30 10:45:49;;;;;;;1.20;1.10;;;18.70;58.50;;;;;;5017520;28;20201;-82
2024/03/30 10:48:15;;;;;;;1.00;1.00;;;18.60;59.10;;;;;;5033844;28;20248;-81
2024/03/30 10:50:41;;;;;;;1.10;1.00;;;18.60;59.60;;;;;;5017358;28;20201;-82
2024/03/30 10:53:06;;;;;;;0.98;0.98;;;18.60;59.20;;;;;;5033732;28;20201;-82
2024/03/30 10:55:39;;;;;;;1.45;1.23;;;18.50;60.00;;;;;;5016804;28;20702;-82
2024/03/30 10:58:05;;;;;;;1.05;0.98;;;18.50;60.10;;;;;;5033752;28;20159;-82
2024/03/30 11:00:37;;;;;;;2.50;1.20;;;18.50;60.20;;;;;;5035804;28;20519;-83
2024/03/30 11:03:06;;;;;;;1.83;1.10;;;18.40;60.40;;;;;;5035660;28;20193;-83
2024/03/30 11:05:32;;;;;;;1.15;1.00;;;18.40;60.30;;;;;;5036700;28;20523;-83
2024/03/30 11:07:57;;;;;;;2.03;1.10;;;18.40;60.70;;;;;;5040022;28;20237;-84
2024/03/30 11:10:24;;;;;;;1.55;1.00;;;18.40;60.50;;;;;;5036088;28;20575;-83
2024/03/30 11:12:50;;;;;;;1.42;1.20;;;18.40;60.20;;;;;;5036841;28;20178;-83
2024/03/30 11:15:19;;;;;;;1.30;1.00;;;18.40;60.10;;;;;;5037108;28;20641;-83
2024/03/30 11:17:59;;;;;;;1.38;1.27;;;18.40;60.50;;;;;;5053852;28;20162;-83
2024/03/30 11:20:36;;;;;;;1.10;1.00;;;18.50;60.30;;;;;;5038030;28;20202;-83
2024/03/30 11:23:07;;;;;;;1.30;1.20;;;18.50;59.80;;;;;;5052952;28;20630;-83
2024/03/30 11:25:38;;;;;;;2.30;1.45;;;18.50;59.70;;;;;;5019789;28;20596;-83
2024/03/30 11:28:16;;;;;;;1.30;1.20;;;18.60;59.10;;;;;;5035792;28;20692;-83
2024/03/30 11:31:17;;;;;;;1.42;1.20;;;18.60;59.30;;;;;;5038620;28;20681;-83
2024/03/30 11:34:03;;;;;;;1.50;1.30;;;18.60;59.60;;;;;;5020238;28;20216;-83
2024/03/30 11:37:07;;;;;;;1.17;1.02;;;18.60;59.20;;;;;;5068295;28;20210;-83
2024/03/30 11:39:40;;;;;;;1.25;0.95;;;18.70;59.20;;;;;;5037638;28;20585;-83
2024/03/30 11:42:17;;;;;;;2.15;0.98;;;18.70;59.20;;;;;;5035939;28;20178;-84
2024/03/30 11:44:45;;;;;;;1.55;1.08;;;18.70;59.00;;;;;;5035915;28;20170;-83
2024/03/30 11:47:12;;;;;;;1.40;1.10;;;18.60;59.40;;;;;;5053389;28;20179;-83
2024/03/30 11:49:39;;;;;;;2.08;1.20;;;18.70;59.00;;;;;;5037588;28;20170;-83
2024/03/30 11:52:05;;;;;;;1.63;1.00;;;18.70;58.80;;;;;;5037081;28;20198;-83
2024/03/30 11:54:34;;;;;;;0.95;0.95;;;18.70;59.40;;;;;;5036564;28;20170;-82
2024/03/30 11:57:12;;;;;;;1.20;1.10;;;18.70;59.10;;;;;;5054525;28;20155;-82
2024/03/30 11:59:40;;;;;;;1.35;1.10;;;18.70;58.90;;;;;;5053369;28;20184;-83
2024/03/30 12:02:13;;;;;;;1.38;1.20;;;18.80;59.00;;;;;;5054801;28;20613;-82
2024/03/30 12:04:46;;;;;;;1.50;1.40;;;18.80;58.80;;;;;;5038879;28;20163;-83
2024/03/30 12:07:14;;;;;;;1.88;1.20;;;18.70;58.50;;;;;;5046437;28;20174;-83
2024/03/30 12:09:40;;;;;;;3.15;1.20;;;18.70;59.10;;;;;;5038699;28;20181;-82
2024/03/30 12:12:19;;;;;;;1.30;1.20;;;18.70;58.90;;;;;;5040370;28;20194;-83
2024/03/30 12:14:47;;;;;;;1.20;1.10;;;18.70;59.20;;;;;;5038904;28;20159;-83
2024/03/30 12:17:17;;;;;;;1.13;1.02;;;18.70;58.70;;;;;;5038013;28;20632;-82
2024/03/30 12:19:43;;;;;;;1.40;1.17;;;18.70;58.90;;;;;;5038007;28;20169;-81
2024/03/30 12:22:09;;;;;;;1.13;1.00;;;18.70;58.40;;;;;;5035185;28;20155;-82
2024/03/30 12:24:35;;;;;;;1.95;0.93;;;18.70;59.10;;;;;;5034833;28;20163;-81
2024/03/30 12:27:01;;;;;;;1.20;1.10;;;18.70;58.30;;;;;;5035868;28;20167;-82
2024/03/30 12:29:26;;;;;;;1.20;1.10;;;18.70;58.30;;;;;;5034202;28;20271;-82
2024/03/30 12:31:52;;;;;;;1.17;0.90;;;18.70;58.40;;;;;;5017368;28;20683;-81
2024/03/30 12:34:19;;;;;;;1.10;1.00;;;18.70;59.10;;;;;;5033225;28;20163;-81
2024/03/30 12:36:45;;;;;;;1.20;1.10;;;18.70;58.60;;;;;;5016677;28;20162;-82
2024/03/30 12:39:11;;;;;;;0.90;0.90;;;18.70;59.00;;;;;;5033060;28;20193;-82
2024/03/30 12:41:37;;;;;;;1.10;1.00;;;18.70;58.40;;;;;;5033066;28;20228;-82
2024/03/30 12:44:03;;;;;;;1.70;1.10;;;18.70;59.00;;;;;;5032573;28;20179;-81
2024/03/30 12:46:30;;;;;;;1.48;1.20;;;18.70;58.60;;;;;;5032837;28;20177;-81
2024/03/30 12:49:01;;;;;;;2.15;1.10;;;18.70;58.50;;;;;;5033035;28;20171;-81
2024/03/30 12:51:30;;;;;;;1.20;1.10;;;18.80;58.50;;;;;;5033703;28;20190;-82
2024/03/30 12:53:56;;;;;;;1.80;1.17;;;18.80;58.70;;;;;;5032042;28;20155;-82
2024/03/30 12:56:23;;;;;;;1.27;1.15;;;18.70;58.30;;;;;;5031608;28;20248;-82